createdAt,value
2019-02-24T00:01:57.061Z,16.20
2019-02-24T00:04:25.548Z,15.23
2019-02-24T00:06:54.382Z,15.63
2019-02-24T00:09:22.867Z,14.83
2019-02-24T00:11:51.269Z,14.73
2019-02-24T00:14:19.710Z,14.27
2019-02-24T00:16:48.277Z,15.60
2019-02-24T00:19:16.754Z,15.93
2019-02-24T00:21:45.201Z,14.30
2019-02-24T00:24:13.720Z,14.30
2019-02-24T00:26:42.295Z,14.93
2019-02-24T00:29:10.758Z,14.20
2019-02-24T00:31:39.433Z,14.27
2019-02-24T00:34:08.081Z,13.60
2019-02-24T00:37:16.907Z,14.00
2019-02-24T00:42:34.561Z,13.63
2019-02-24T00:48:11.280Z,14.13
2019-02-24T00:50:39.741Z,14.50
2019-02-24T00:53:08.193Z,13.73
2019-02-24T00:55:36.777Z,14.47
2019-02-24T00:58:05.248Z,14.33
2019-02-24T01:00:33.892Z,12.80
2019-02-24T01:03:02.419Z,13.70
2019-02-24T01:05:30.891Z,13.70
2019-02-24T01:07:59.532Z,14.20
2019-02-24T01:11:08.232Z,13.30
2019-02-24T01:13:37.065Z,13.70
2019-02-24T01:16:05.607Z,13.80
2019-02-24T01:18:34.053Z,15.03
2019-02-24T01:21:02.602Z,13.80
2019-02-24T01:23:31.173Z,14.20
2019-02-24T01:25:59.720Z,14.23
2019-02-24T01:28:28.378Z,14.17
2019-02-24T01:30:56.977Z,13.73
2019-02-24T01:33:25.487Z,14.00
2019-02-24T01:35:54.121Z,13.70
2019-02-24T01:38:22.602Z,14.57
2019-02-24T01:40:51.051Z,15.30
2019-02-24T01:43:19.537Z,15.10
2019-02-24T01:45:47.975Z,15.50
2019-02-24T01:48:16.510Z,16.00
2019-02-24T01:50:45.080Z,15.67
2019-02-24T01:53:13.685Z,15.70
2019-02-24T01:55:42.179Z,15.90
2019-02-24T01:58:10.693Z,15.70
2019-02-24T02:00:39.146Z,16.17
2019-02-24T02:03:07.936Z,16.20
2019-02-24T02:05:36.377Z,15.43
2019-02-24T02:08:05.037Z,14.60
2019-02-24T02:10:33.498Z,16.23
2019-02-24T02:13:02.020Z,15.17
2019-02-24T02:15:30.647Z,15.10
2019-02-24T02:17:59.446Z,14.30
2019-02-24T02:20:27.959Z,14.20
2019-02-24T02:22:56.502Z,14.50
2019-02-24T02:25:24.904Z,15.10
2019-02-24T02:27:53.433Z,15.13
2019-02-24T02:30:22.007Z,14.70
2019-02-24T02:32:50.655Z,14.40
2019-02-24T02:35:19.231Z,14.00
2019-02-24T02:37:47.693Z,15.10
2019-02-24T02:40:16.243Z,14.37
2019-02-24T02:42:45.090Z,15.00
2019-02-24T02:45:13.882Z,14.40
2019-02-24T02:47:42.360Z,14.03
2019-02-24T02:50:10.772Z,14.73
2019-02-24T02:52:39.306Z,14.73
2019-02-24T02:55:07.929Z,15.03
2019-02-24T02:57:36.575Z,14.40
2019-02-24T03:00:45.038Z,15.80
2019-02-24T03:03:13.474Z,15.67
2019-02-24T03:08:17.438Z,15.17
2019-02-24T03:10:45.937Z,14.60
2019-02-24T03:13:14.481Z,14.47
2019-02-24T03:15:43.056Z,16.20
2019-02-24T03:18:11.450Z,15.60
2019-02-24T03:20:39.895Z,16.07
2019-02-24T03:23:08.441Z,15.03
2019-02-24T03:25:37.214Z,15.97
2019-02-24T03:28:06.104Z,14.90
2019-02-24T03:30:34.645Z,15.40
2019-02-24T03:33:03.073Z,14.60
2019-02-24T03:35:44.306Z,14.67
2019-02-24T03:38:12.845Z,15.73
2019-02-24T03:40:41.480Z,15.07
2019-02-24T03:43:10.001Z,15.20
2019-02-24T03:45:38.441Z,15.03
2019-02-24T03:48:06.936Z,15.23
2019-02-24T03:50:35.655Z,14.37
2019-02-24T03:53:04.420Z,15.20
2019-02-24T03:55:32.896Z,15.13
2019-02-24T03:58:01.341Z,14.53
2019-02-24T04:00:29.892Z,14.37
2019-02-24T04:02:58.351Z,15.47
2019-02-24T04:05:26.733Z,14.47
2019-02-24T04:07:55.193Z,14.13
2019-02-24T04:10:24.029Z,15.13
2019-02-24T04:12:52.481Z,15.77
2019-02-24T04:15:21.401Z,15.23
2019-02-24T04:17:50.306Z,15.00
2019-02-24T04:20:18.966Z,15.67
2019-02-24T04:22:47.407Z,16.00
2019-02-24T04:25:15.782Z,16.07
2019-02-24T04:27:44.740Z,14.80
2019-02-24T04:30:13.320Z,13.93
2019-02-24T04:32:41.887Z,14.77
2019-02-24T04:35:10.475Z,15.00
2019-02-24T04:37:39.000Z,15.23
2019-02-24T04:40:47.425Z,15.17
2019-02-24T04:43:15.981Z,14.13
2019-02-24T04:45:44.427Z,15.07
2019-02-24T04:48:13.452Z,14.60
2019-02-24T04:50:41.819Z,15.20
2019-02-24T04:53:10.370Z,14.87
2019-02-24T04:55:38.761Z,14.77
2019-02-24T04:58:07.219Z,14.97
2019-02-24T05:00:35.764Z,15.23
2019-02-24T05:03:04.207Z,15.30
2019-02-24T05:05:32.643Z,13.83
2019-02-24T05:08:01.520Z,14.43
2019-02-24T05:10:29.912Z,14.27
2019-02-24T05:12:58.334Z,15.07
2019-02-24T05:15:27.173Z,15.83
2019-02-24T05:17:55.648Z,15.30
2019-02-24T05:20:24.132Z,15.30
2019-02-24T05:22:52.623Z,14.60
2019-02-24T05:25:21.074Z,14.37
2019-02-24T05:27:49.547Z,14.10
2019-02-24T05:30:18.125Z,16.00
2019-02-24T05:32:46.638Z,15.67
2019-02-24T05:35:15.180Z,14.67
2019-02-24T05:37:43.775Z,13.77
2019-02-24T05:40:12.208Z,14.77
2019-02-24T05:42:42.459Z,14.90
2019-02-24T05:45:10.993Z,15.70
2019-02-24T05:47:39.449Z,14.83
2019-02-24T05:50:07.957Z,15.33
2019-02-24T05:52:36.374Z,15.23
2019-02-24T05:57:59.892Z,16.40
2019-02-24T06:00:28.412Z,15.67
2019-02-24T06:02:57.118Z,15.90
2019-02-24T06:05:25.618Z,15.63
2019-02-24T06:07:54.384Z,15.60
2019-02-24T06:10:23.272Z,16.80
2019-02-24T06:12:51.649Z,14.23
2019-02-24T06:15:20.215Z,15.60
2019-02-24T06:17:48.658Z,16.70
2019-02-24T06:20:17.156Z,14.63
2019-02-24T06:22:45.672Z,15.43
2019-02-24T06:25:14.189Z,15.67
2019-02-24T06:27:42.680Z,15.50
2019-02-24T06:30:11.186Z,15.10
2019-02-24T06:32:39.655Z,14.90
2019-02-24T06:35:49.315Z,16.03
2019-02-24T06:38:18.080Z,14.73
2019-02-24T06:40:47.121Z,15.43
2019-02-24T06:43:15.589Z,15.17
2019-02-24T06:45:44.023Z,15.33
2019-02-24T06:48:12.528Z,15.23
2019-02-24T06:51:00.080Z,15.20
2019-02-24T06:53:28.550Z,15.40
2019-02-24T06:55:56.959Z,15.27
2019-02-24T06:58:25.467Z,14.83
2019-02-24T07:00:53.983Z,15.43
2019-02-24T07:03:22.800Z,15.20
2019-02-24T07:05:51.364Z,15.60
2019-02-24T07:08:19.846Z,15.53
2019-02-24T07:10:48.285Z,15.67
2019-02-24T07:13:17.009Z,15.03
2019-02-24T07:15:45.472Z,15.50
2019-02-24T07:18:33.199Z,15.63
2019-02-24T07:21:01.658Z,15.40
2019-02-24T07:23:30.135Z,15.63
2019-02-24T07:25:58.583Z,16.10
2019-02-24T07:28:27.063Z,16.13
2019-02-24T07:30:55.897Z,14.93
2019-02-24T07:33:24.804Z,15.83
2019-02-24T07:35:53.452Z,15.40
2019-02-24T07:38:21.951Z,15.83
2019-02-24T07:40:50.405Z,14.77
2019-02-24T07:43:18.951Z,15.43
2019-02-24T07:45:47.414Z,16.50
2019-02-24T07:48:15.874Z,15.07
2019-02-24T07:50:44.374Z,15.00
2019-02-24T07:53:12.832Z,15.00
2019-02-24T07:55:41.413Z,15.13
2019-02-24T07:58:09.917Z,14.80
2019-02-24T08:00:38.478Z,15.97
2019-02-24T08:03:07.310Z,14.43
2019-02-24T08:05:35.839Z,14.83
2019-02-24T08:08:04.786Z,15.83
2019-02-24T08:10:33.572Z,16.00
2019-02-24T08:13:02.020Z,16.00
2019-02-24T08:15:30.570Z,17.93
2019-02-24T08:17:59.118Z,17.20
2019-02-24T08:20:27.585Z,15.80
2019-02-24T08:22:56.120Z,16.33
2019-02-24T08:25:24.631Z,15.63
2019-02-24T08:27:55.548Z,16.57
2019-02-24T08:30:23.814Z,16.10
2019-02-24T08:32:52.433Z,17.43
2019-02-24T08:35:21.029Z,16.90
2019-02-24T08:37:49.541Z,15.60
2019-02-24T08:40:18.075Z,15.50
2019-02-24T08:42:46.484Z,16.23
2019-02-24T08:45:15.297Z,15.73
2019-02-24T08:47:44.315Z,16.40
2019-02-24T08:50:12.801Z,16.33
2019-02-24T08:52:41.422Z,15.67
2019-02-24T08:55:09.952Z,15.97
2019-02-24T08:57:38.464Z,16.40
2019-02-24T09:00:51.046Z,16.03
2019-02-24T09:03:17.483Z,16.00
2019-02-24T09:05:45.863Z,15.60
2019-02-24T09:08:14.648Z,15.90
2019-02-24T09:10:43.439Z,15.40
2019-02-24T09:13:11.882Z,16.50
2019-02-24T09:15:40.816Z,15.90
2019-02-24T09:18:49.273Z,16.53
2019-02-24T09:21:17.850Z,16.27
2019-02-24T09:23:46.710Z,16.53
2019-02-24T09:26:15.187Z,17.10
2019-02-24T09:28:43.792Z,17.50
2019-02-24T09:31:12.260Z,16.43
2019-02-24T09:33:40.737Z,16.37
2019-02-24T09:36:09.431Z,17.37
2019-02-24T09:38:38.249Z,16.80
2019-02-24T09:41:06.819Z,15.63
2019-02-24T09:43:35.352Z,16.03
2019-02-24T09:46:04.176Z,16.43
2019-02-24T09:48:32.718Z,16.93
2019-02-24T09:51:01.267Z,15.90
2019-02-24T09:53:30.137Z,16.63
2019-02-24T09:55:58.709Z,17.10
2019-02-24T09:58:27.228Z,16.90
2019-02-24T10:00:55.851Z,16.10
2019-02-24T10:03:24.272Z,16.70
2019-02-24T10:05:53.164Z,17.53
2019-02-24T10:08:21.635Z,17.20
2019-02-24T10:10:50.081Z,17.13
2019-02-24T10:13:19.019Z,16.70
2019-02-24T10:15:47.464Z,16.17
2019-02-24T10:18:15.954Z,16.20
2019-02-24T10:20:44.873Z,32.70
2019-02-24T10:23:13.428Z,15.97
2019-02-24T10:25:41.828Z,15.30
2019-02-24T10:28:10.329Z,15.70
2019-02-24T10:30:38.896Z,14.93
2019-02-24T10:33:07.461Z,16.10
2019-02-24T10:35:35.921Z,15.27
2019-02-24T10:38:04.543Z,15.70
2019-02-24T10:40:33.007Z,15.10
2019-02-24T10:43:02.040Z,15.03
2019-02-24T10:45:30.926Z,15.20
2019-02-24T10:47:59.456Z,16.17
2019-02-24T10:50:28.510Z,15.80
2019-02-24T10:52:57.002Z,14.60
2019-02-24T10:55:25.512Z,14.37
2019-02-24T10:57:54.085Z,14.43
2019-02-24T11:00:22.791Z,15.00
2019-02-24T11:02:51.327Z,16.10
2019-02-24T11:05:19.852Z,15.97
2019-02-24T11:07:48.458Z,16.17
2019-02-24T11:10:17.007Z,15.13
2019-02-24T11:12:45.525Z,14.27
2019-02-24T11:15:54.247Z,14.97
2019-02-24T11:18:22.743Z,14.70
2019-02-24T11:20:51.292Z,14.20
2019-02-24T11:23:19.891Z,14.30
2019-02-24T11:25:48.443Z,13.70
2019-02-24T11:28:16.922Z,13.83
2019-02-24T11:30:45.467Z,15.67
2019-02-24T11:33:14.066Z,15.07
2019-02-24T11:35:42.528Z,15.00
2019-02-24T11:38:11.576Z,15.10
2019-02-24T11:40:40.183Z,14.30
2019-02-24T11:43:08.830Z,14.07
2019-02-24T11:45:37.291Z,14.03
2019-02-24T11:48:05.874Z,13.17
2019-02-24T11:50:34.418Z,12.37
2019-02-24T11:53:03.267Z,12.43
2019-02-24T11:55:31.722Z,12.77
2019-02-24T11:58:00.219Z,13.20
2019-02-24T12:00:28.682Z,12.20
2019-02-24T12:02:57.150Z,12.50
2019-02-24T12:05:25.764Z,12.03
2019-02-24T12:07:54.240Z,11.40
2019-02-24T12:10:22.769Z,12.03
2019-02-24T12:12:51.300Z,11.40
2019-02-24T12:15:19.801Z,12.03
2019-02-24T12:17:48.352Z,11.43
2019-02-24T12:20:16.966Z,11.30
2019-02-24T12:22:45.492Z,11.23
2019-02-24T12:25:14.061Z,10.60
2019-02-24T12:27:42.509Z,11.07
2019-02-24T12:30:30.358Z,10.97
2019-02-24T12:32:58.826Z,10.97
2019-02-24T12:35:27.488Z,10.70
2019-02-24T12:37:56.008Z,9.00
2019-02-24T12:40:24.622Z,9.80
2019-02-24T12:42:54.576Z,10.00
2019-02-24T12:45:23.464Z,10.33
2019-02-24T12:47:51.995Z,11.57
2019-02-24T12:50:20.579Z,10.07
2019-02-24T12:52:49.489Z,10.20
2019-02-24T12:55:17.861Z,11.03
2019-02-24T12:57:46.418Z,11.60
2019-02-24T13:00:34.213Z,11.10
2019-02-24T13:03:02.763Z,11.87
2019-02-24T13:05:31.449Z,11.40
2019-02-24T13:07:59.866Z,11.87
2019-02-24T13:10:28.403Z,11.87
2019-02-24T13:12:56.896Z,11.60
2019-02-24T13:15:25.347Z,11.80
2019-02-24T13:17:53.911Z,11.03
2019-02-24T13:20:22.490Z,11.90
2019-02-24T13:22:51.056Z,11.90
2019-02-24T13:25:19.531Z,11.90
2019-02-24T13:27:48.020Z,11.50
2019-02-24T13:30:56.713Z,10.90
2019-02-24T13:33:25.219Z,11.40
2019-02-24T13:35:53.664Z,11.53
2019-02-24T13:38:22.152Z,11.70
2019-02-24T13:40:50.599Z,11.80
2019-02-24T13:43:19.226Z,11.40
2019-02-24T13:45:47.696Z,10.83
2019-02-24T13:48:16.167Z,11.17
2019-02-24T13:50:44.720Z,11.00
2019-02-24T13:53:13.286Z,11.60
2019-02-24T13:55:42.118Z,11.33
2019-02-24T13:58:10.667Z,11.70
2019-02-24T14:00:39.133Z,11.27
2019-02-24T14:03:07.722Z,10.97
2019-02-24T14:05:36.124Z,11.53
2019-02-24T14:08:04.855Z,11.10
2019-02-24T14:10:33.386Z,11.63
2019-02-24T14:13:01.853Z,11.87
2019-02-24T14:15:30.731Z,11.17
2019-02-24T14:17:59.237Z,11.07
2019-02-24T14:20:27.787Z,11.83
2019-02-24T14:26:04.621Z,11.00
2019-02-24T14:28:33.173Z,10.67
2019-02-24T14:31:02.080Z,11.67
2019-02-24T14:33:30.551Z,11.90
2019-02-24T14:35:59.001Z,12.50
2019-02-24T14:38:27.674Z,11.30
2019-02-24T14:40:56.248Z,11.00
2019-02-24T14:43:24.783Z,11.10
2019-02-24T14:45:53.312Z,11.60
2019-02-24T14:48:21.791Z,11.70
2019-02-24T14:50:50.338Z,11.47
2019-02-24T14:53:18.825Z,12.17
2019-02-24T14:55:47.294Z,11.63
2019-02-24T14:58:15.784Z,11.70
2019-02-24T15:00:44.295Z,11.07
2019-02-24T15:03:12.971Z,12.40
2019-02-24T15:05:41.849Z,11.50
2019-02-24T15:08:10.566Z,12.67
2019-02-24T15:10:39.280Z,11.90
2019-02-24T15:13:07.865Z,12.03
2019-02-24T15:15:55.819Z,12.13
2019-02-24T15:18:24.330Z,11.83
2019-02-24T15:20:52.850Z,12.47
2019-02-24T15:23:21.312Z,11.73
2019-02-24T15:25:49.880Z,12.50
2019-02-24T15:28:18.408Z,11.80
2019-02-24T15:30:47.189Z,11.90
2019-02-24T15:33:15.660Z,11.20
2019-02-24T15:35:44.212Z,10.93
2019-02-24T15:38:12.736Z,11.27
2019-02-24T15:40:41.512Z,11.30
2019-02-24T15:43:10.165Z,10.70
2019-02-24T15:45:38.781Z,10.83
2019-02-24T15:48:07.406Z,10.60
2019-02-24T15:50:36.070Z,10.50
2019-02-24T15:53:04.658Z,10.60
2019-02-24T15:55:33.177Z,12.97
2019-02-24T15:58:01.828Z,9.90
2019-02-24T16:00:30.520Z,10.20
2019-02-24T16:03:01.853Z,10.63
2019-02-24T16:05:29.330Z,9.70
2019-02-24T16:07:58.198Z,10.30
2019-02-24T16:10:26.779Z,11.10
2019-02-24T16:12:55.312Z,10.73
2019-02-24T16:16:03.766Z,11.00
2019-02-24T16:18:32.345Z,10.53
2019-02-24T16:21:00.901Z,10.60
2019-02-24T16:23:29.539Z,11.57
2019-02-24T16:25:58.216Z,10.50
2019-02-24T16:28:26.730Z,11.33
2019-02-24T16:30:55.381Z,11.33
2019-02-24T16:33:24.078Z,11.50
2019-02-24T16:35:52.648Z,11.33
2019-02-24T16:38:21.193Z,11.50
2019-02-24T16:40:49.780Z,11.50
2019-02-24T16:43:18.295Z,11.50
2019-02-24T16:45:47.087Z,11.30
2019-02-24T16:48:15.933Z,11.17
2019-02-24T16:50:44.639Z,11.90
2019-02-24T16:56:04.541Z,11.57
2019-02-24T16:58:34.349Z,11.17
2019-02-24T17:01:03.502Z,11.37
2019-02-24T17:03:32.757Z,12.10
2019-02-24T17:06:01.726Z,12.77
2019-02-24T17:08:30.311Z,11.57
2019-02-24T17:11:07.137Z,12.50
2019-02-24T17:13:30.997Z,11.67
2019-02-24T17:15:59.506Z,12.27
2019-02-24T17:18:28.278Z,12.47
2019-02-24T17:20:57.225Z,11.93
2019-02-24T17:23:26.097Z,12.17
2019-02-24T17:25:54.760Z,11.93
2019-02-24T17:28:23.319Z,13.00
2019-02-24T17:30:51.885Z,12.13
2019-02-24T17:33:29.499Z,12.17
2019-02-24T17:35:50.751Z,13.30
2019-02-24T17:38:19.267Z,12.73
2019-02-24T17:40:47.833Z,12.67
2019-02-24T17:43:16.231Z,12.23
2019-02-24T17:45:44.993Z,12.20
2019-02-24T17:48:15.297Z,12.90
2019-02-24T17:50:43.881Z,13.40
2019-02-24T17:53:12.409Z,13.47
2019-02-24T17:55:41.048Z,13.60
2019-02-24T17:58:09.592Z,12.63
2019-02-24T18:00:57.435Z,12.50
2019-02-24T18:03:25.887Z,12.83
2019-02-24T18:05:54.559Z,12.80
2019-02-24T18:08:28.276Z,13.77
2019-02-24T18:10:53.518Z,14.17
2019-02-24T18:13:22.443Z,12.30
2019-02-24T18:15:51.135Z,12.60
2019-02-24T18:18:19.617Z,13.40
2019-02-24T18:20:48.129Z,13.07
2019-02-24T18:23:16.547Z,13.00
2019-02-24T18:25:45.469Z,14.20
2019-02-24T18:28:14.081Z,13.80
2019-02-24T18:30:42.712Z,13.33
2019-02-24T18:33:11.500Z,14.60
2019-02-24T18:35:40.166Z,13.73
2019-02-24T18:38:08.737Z,13.87
2019-02-24T18:40:37.327Z,14.70
2019-02-24T18:43:05.912Z,14.80
2019-02-24T18:45:34.399Z,14.40
2019-02-24T18:48:02.906Z,15.33
2019-02-24T18:50:31.406Z,13.97
2019-02-24T18:52:59.913Z,13.10
2019-02-24T18:55:28.465Z,13.87
2019-02-24T18:57:57.010Z,14.60
2019-02-24T19:00:25.513Z,14.07
2019-02-24T19:02:55.136Z,14.50
2019-02-24T19:05:24.841Z,14.03
2019-02-24T19:07:53.446Z,14.00
2019-02-24T19:11:01.938Z,13.87
2019-02-24T19:13:30.375Z,14.17
2019-02-24T19:15:59.145Z,14.83
2019-02-24T19:18:27.621Z,13.97
2019-02-24T19:20:56.144Z,13.57
2019-02-24T19:23:24.569Z,15.60
2019-02-24T19:25:53.490Z,14.10
2019-02-24T19:28:21.872Z,14.13
2019-02-24T19:30:50.355Z,14.23
2019-02-24T19:33:18.953Z,14.60
2019-02-24T19:35:47.484Z,14.83
2019-02-24T19:38:16.065Z,14.00
2019-02-24T19:40:44.574Z,13.97
2019-02-24T19:43:13.374Z,14.60
2019-02-24T19:45:41.929Z,13.37
2019-02-24T19:48:10.559Z,14.70
2019-02-24T19:50:39.083Z,15.50
2019-02-24T19:53:14.969Z,15.10
2019-02-24T19:55:43.549Z,17.00
2019-02-24T19:58:12.082Z,15.23
2019-02-24T20:00:40.564Z,15.57
2019-02-24T20:03:09.100Z,15.30
2019-02-24T20:05:37.643Z,14.00
2019-02-24T20:08:06.164Z,15.73
2019-02-24T20:10:34.724Z,15.13
2019-02-24T20:13:03.316Z,16.20
2019-02-24T20:15:32.252Z,14.93
2019-02-24T20:18:00.868Z,14.90
2019-02-24T20:20:29.380Z,15.10
2019-02-24T20:22:57.931Z,15.80
2019-02-24T20:25:26.513Z,16.00
2019-02-24T20:27:55.381Z,16.43
2019-02-24T20:30:43.148Z,14.47
2019-02-24T20:33:11.737Z,15.80
2019-02-24T20:35:40.805Z,16.00
2019-02-24T20:38:09.351Z,15.30
2019-02-24T20:40:37.956Z,15.63
2019-02-24T20:43:06.622Z,16.90
2019-02-24T20:45:35.220Z,16.17
2019-02-24T20:48:03.809Z,16.50
2019-02-24T20:50:51.662Z,18.13
2019-02-24T20:53:20.216Z,17.43
2019-02-24T20:55:49.138Z,16.50
2019-02-24T20:58:17.918Z,16.73
2019-02-24T21:03:37.703Z,16.50
2019-02-24T21:06:06.100Z,17.87
2019-02-24T21:08:34.746Z,16.53
2019-02-24T21:11:03.315Z,15.40
2019-02-24T21:13:31.946Z,16.20
2019-02-24T21:16:00.454Z,14.80
2019-02-24T21:18:29.995Z,16.13
2019-02-24T21:20:59.570Z,17.27
2019-02-24T21:23:28.173Z,15.63
2019-02-24T21:25:56.805Z,16.40
2019-02-24T21:28:25.317Z,16.10
2019-02-24T21:30:53.945Z,16.53
2019-02-24T21:33:22.559Z,16.00
2019-02-24T21:35:51.216Z,15.23
2019-02-24T21:38:19.942Z,16.90
2019-02-24T21:40:48.406Z,15.77
2019-02-24T21:43:16.883Z,16.70
2019-02-24T21:45:45.446Z,16.57
2019-02-24T21:48:13.887Z,15.27
2019-02-24T21:50:42.495Z,16.77
2019-02-24T21:53:11.082Z,17.03
2019-02-24T21:55:39.535Z,16.70
2019-02-24T21:58:08.087Z,17.13
2019-02-24T22:03:25.821Z,16.00
2019-02-24T22:05:54.360Z,16.10
2019-02-24T22:08:22.812Z,17.17
2019-02-24T22:10:51.430Z,16.97
2019-02-24T22:13:19.956Z,16.43
2019-02-24T22:15:48.554Z,16.27
2019-02-24T22:18:17.098Z,15.80
2019-02-24T22:20:45.628Z,16.50
2019-02-24T22:23:14.555Z,17.80
2019-02-24T22:25:43.092Z,18.03
2019-02-24T22:28:11.734Z,16.80
2019-02-24T22:30:40.412Z,17.73
2019-02-24T22:33:09.026Z,17.40
2019-02-24T22:35:37.741Z,17.20
2019-02-24T22:38:06.341Z,17.87
2019-02-24T22:40:34.787Z,17.40
2019-02-24T22:43:03.369Z,17.03
2019-02-24T22:45:31.830Z,16.37
2019-02-24T22:48:00.337Z,17.30
2019-02-24T22:50:28.793Z,17.67
2019-02-24T22:52:58.286Z,18.13
2019-02-24T22:55:26.797Z,17.40
2019-02-24T22:57:55.261Z,17.57
2019-02-24T23:01:03.753Z,17.70
2019-02-24T23:04:12.238Z,16.80
2019-02-24T23:06:40.769Z,17.73
2019-02-24T23:09:49.219Z,18.13
2019-02-24T23:12:17.843Z,16.80
2019-02-24T23:14:46.314Z,17.10
2019-02-24T23:17:14.906Z,17.53
2019-02-24T23:19:43.737Z,17.27
2019-02-24T23:22:12.378Z,16.30
2019-02-24T23:24:40.993Z,17.40
2019-02-24T23:27:09.553Z,17.17
2019-02-24T23:29:37.995Z,17.43
2019-02-24T23:32:06.558Z,18.10
2019-02-24T23:34:35.072Z,16.83
2019-02-24T23:37:03.676Z,18.37
2019-02-24T23:39:32.563Z,17.77
2019-02-24T23:42:01.075Z,17.40
2019-02-24T23:44:29.686Z,17.37
2019-02-24T23:46:58.187Z,17.90
2019-02-24T23:49:26.643Z,17.27
2019-02-24T23:51:55.145Z,16.90
2019-02-24T23:54:23.657Z,17.67
2019-02-24T23:56:52.265Z,17.10
2019-02-24T23:59:20.911Z,16.67
